createdAt,value
2023-01-07T00:01:38.419Z,19.33
2023-01-07T00:04:08.304Z,19.33
2023-01-07T00:06:39.990Z,21.75
2023-01-07T00:09:13.086Z,23.25
2023-01-07T00:11:41.868Z,27.50
2023-01-07T00:14:13.075Z,21.33
2023-01-07T00:16:41.525Z,19.50
2023-01-07T00:19:30.037Z,22.00
2023-01-07T00:21:59.051Z,20.50
2023-01-07T00:24:27.367Z,25.25
2023-01-07T00:26:56.135Z,15.00
2023-01-07T00:29:24.235Z,20.75
2023-01-07T00:31:54.362Z,17.75
2023-01-07T00:34:24.375Z,24.00
2023-01-07T00:37:13.406Z,17.50
2023-01-07T00:39:42.080Z,24.75
2023-01-07T00:42:30.236Z,22.00
2023-01-07T00:44:58.411Z,20.75
2023-01-07T00:47:27.339Z,22.50
2023-01-07T00:49:55.311Z,23.50
2023-01-07T00:52:23.046Z,24.00
2023-01-07T00:54:51.411Z,20.25
2023-01-07T00:57:20.586Z,20.50
2023-01-07T00:59:49.362Z,22.50
2023-01-07T01:02:18.453Z,17.75
2023-01-07T01:04:46.372Z,18.75
2023-01-07T01:07:15.763Z,19.50
2023-01-07T01:09:44.369Z,20.25
2023-01-07T01:12:13.042Z,19.50
2023-01-07T01:14:41.418Z,21.25
2023-01-07T01:17:10.093Z,20.25
2023-01-07T01:19:40.846Z,17.25
2023-01-07T01:22:09.865Z,17.50
2023-01-07T01:24:38.411Z,20.25
2023-01-07T01:27:10.231Z,23.50
2023-01-07T01:29:38.459Z,14.75
2023-01-07T01:32:08.165Z,17.50
2023-01-07T01:34:36.643Z,20.00
2023-01-07T01:37:05.898Z,18.00
2023-01-07T01:39:34.242Z,19.25
2023-01-07T01:42:03.928Z,23.25
2023-01-07T01:44:55.649Z,21.25
2023-01-07T01:47:43.020Z,22.00
2023-01-07T01:50:37.388Z,20.25
2023-01-07T01:53:43.069Z,22.25
2023-01-07T01:56:14.438Z,19.50
2023-01-07T01:58:50.455Z,26.75
2023-01-07T02:01:18.511Z,24.00
2023-01-07T02:03:49.105Z,25.00
2023-01-07T02:06:26.504Z,22.75
2023-01-07T02:08:55.496Z,27.00
2023-01-07T02:12:00.678Z,28.50
2023-01-07T02:15:06.303Z,27.50
2023-01-07T02:18:06.252Z,25.25
2023-01-07T02:21:01.955Z,27.75
2023-01-07T02:24:00.904Z,25.50
2023-01-07T02:26:59.531Z,25.75
2023-01-07T02:29:30.233Z,30.25
2023-01-07T02:32:28.133Z,26.50
2023-01-07T02:35:23.801Z,29.50
2023-01-07T02:38:06.671Z,26.00
2023-01-07T02:41:07.236Z,31.00
2023-01-07T02:43:43.035Z,22.75
2023-01-07T02:46:17.221Z,29.75
2023-01-07T02:48:46.381Z,24.75
2023-01-07T02:51:15.361Z,20.50
2023-01-07T02:53:47.079Z,20.75
2023-01-07T02:56:39.708Z,19.00
2023-01-07T02:59:35.568Z,20.50
2023-01-07T03:02:42.114Z,22.50
2023-01-07T03:05:37.053Z,22.50
2023-01-07T03:08:34.381Z,21.50
2023-01-07T03:11:09.647Z,26.50
2023-01-07T03:14:14.879Z,23.25
2023-01-07T03:16:51.009Z,27.00
2023-01-07T03:19:25.470Z,31.00
2023-01-07T03:21:56.271Z,22.25
2023-01-07T03:24:28.753Z,28.75
2023-01-07T03:27:00.138Z,30.00
2023-01-07T03:29:32.465Z,32.75
2023-01-07T03:32:09.651Z,30.75
2023-01-07T03:34:39.378Z,30.75
2023-01-07T03:37:22.655Z,29.00
2023-01-07T03:39:52.638Z,28.50
2023-01-07T03:42:42.707Z,31.50
2023-01-07T03:45:16.145Z,34.75
2023-01-07T03:47:49.549Z,22.00
2023-01-07T03:50:18.774Z,31.25
2023-01-07T03:52:48.878Z,31.75
2023-01-07T03:55:20.286Z,31.25
2023-01-07T03:57:49.327Z,34.75
2023-01-07T04:00:17.987Z,35.00
2023-01-07T04:02:46.823Z,34.50
2023-01-07T04:05:15.713Z,29.25
2023-01-07T04:07:44.628Z,34.25
2023-01-07T04:10:12.364Z,32.75
2023-01-07T04:12:41.193Z,32.25
2023-01-07T04:15:09.580Z,30.25
2023-01-07T04:17:38.784Z,27.75
2023-01-07T04:20:08.145Z,29.50
2023-01-07T04:22:36.329Z,32.50
2023-01-07T04:25:05.946Z,29.00
2023-01-07T04:27:35.268Z,30.00
2023-01-07T04:30:05.048Z,21.00
2023-01-07T04:32:36.247Z,29.00
2023-01-07T04:35:05.570Z,28.75
2023-01-07T04:37:36.866Z,26.75
2023-01-07T04:40:08.872Z,27.25
2023-01-07T04:42:38.248Z,25.75
2023-01-07T04:45:08.046Z,30.75
2023-01-07T04:47:36.233Z,28.50
2023-01-07T04:50:05.526Z,29.25
2023-01-07T04:52:34.433Z,26.00
2023-01-07T04:55:04.100Z,28.00
2023-01-07T04:57:33.467Z,22.25
2023-01-07T05:00:01.270Z,29.00
2023-01-07T05:02:30.828Z,25.25
2023-01-07T05:04:59.696Z,24.00
2023-01-07T05:07:28.283Z,26.25
2023-01-07T05:09:57.157Z,28.50
2023-01-07T05:12:25.280Z,27.25
2023-01-07T05:14:53.339Z,25.00
2023-01-07T05:17:22.254Z,27.50
2023-01-07T05:19:50.251Z,28.25
2023-01-07T05:22:19.272Z,22.00
2023-01-07T05:24:48.168Z,29.25
2023-01-07T05:27:16.215Z,34.00
2023-01-07T05:29:45.224Z,32.25
2023-01-07T05:32:14.160Z,34.25
2023-01-07T05:34:43.299Z,26.50
2023-01-07T05:37:12.572Z,27.00
2023-01-07T05:39:41.417Z,29.00
2023-01-07T05:42:09.339Z,22.25
2023-01-07T05:44:38.924Z,35.25
2023-01-07T05:47:07.314Z,13.50
2023-01-07T05:49:39.134Z,29.75
2023-01-07T05:52:08.003Z,27.00
2023-01-07T05:54:36.259Z,27.75
2023-01-07T05:57:05.302Z,30.00
2023-01-07T05:59:35.040Z,24.00
2023-01-07T06:02:03.598Z,28.00
2023-01-07T06:04:32.506Z,26.25
2023-01-07T06:07:02.020Z,25.75
2023-01-07T06:09:31.672Z,30.00
2023-01-07T06:12:01.306Z,30.00
2023-01-07T06:14:30.546Z,30.00
2023-01-07T06:17:01.931Z,29.75
2023-01-07T06:19:30.290Z,26.75
2023-01-07T06:21:59.713Z,28.50
2023-01-07T06:24:29.315Z,28.50
2023-01-07T06:26:58.841Z,29.50
2023-01-07T06:29:27.907Z,30.00
2023-01-07T06:31:57.296Z,27.25
2023-01-07T06:34:26.127Z,29.75
2023-01-07T06:36:54.321Z,30.75
2023-01-07T06:39:25.774Z,26.00
2023-01-07T06:41:56.925Z,29.25
2023-01-07T06:44:25.977Z,22.00
2023-01-07T06:46:54.223Z,30.00
2023-01-07T06:49:23.492Z,24.00
2023-01-07T06:51:51.365Z,31.25
2023-01-07T06:54:20.637Z,22.50
2023-01-07T06:56:49.219Z,26.25
2023-01-07T06:59:17.220Z,27.75
2023-01-07T07:01:46.661Z,29.00
2023-01-07T07:04:15.644Z,30.75
2023-01-07T07:06:44.614Z,31.00
2023-01-07T07:09:13.278Z,35.00
2023-01-07T07:11:42.299Z,30.00
2023-01-07T07:14:12.065Z,27.75
2023-01-07T07:16:40.959Z,28.00
2023-01-07T07:19:09.445Z,27.25
2023-01-07T07:21:41.029Z,27.25
2023-01-07T07:24:10.784Z,24.75
2023-01-07T07:26:39.201Z,26.75
2023-01-07T07:29:11.042Z,22.25
2023-01-07T07:31:39.624Z,23.50
2023-01-07T07:34:09.992Z,26.50
2023-01-07T07:36:38.276Z,29.50
2023-01-07T07:39:06.231Z,26.50
2023-01-07T07:41:35.547Z,28.50
2023-01-07T07:44:03.236Z,26.50
2023-01-07T07:46:32.327Z,26.25
2023-01-07T07:49:00.276Z,23.00
2023-01-07T07:51:28.363Z,24.00
2023-01-07T07:53:57.413Z,32.00
2023-01-07T07:56:28.279Z,33.00
2023-01-07T07:58:57.358Z,30.75
2023-01-07T08:01:25.317Z,31.25
2023-01-07T08:03:54.770Z,27.00
2023-01-07T08:06:23.290Z,25.25
2023-01-07T08:08:52.407Z,26.00
2023-01-07T08:11:20.279Z,23.75
2023-01-07T08:13:49.171Z,25.25
2023-01-07T08:16:17.433Z,26.00
2023-01-07T08:18:47.567Z,25.75
2023-01-07T08:21:15.376Z,22.75
2023-01-07T08:23:44.410Z,31.75
2023-01-07T08:26:13.445Z,29.00
2023-01-07T08:28:41.217Z,19.25
2023-01-07T08:31:12.982Z,23.25
2023-01-07T08:33:41.254Z,15.25
2023-01-07T08:36:22.217Z,18.75
2023-01-07T08:38:54.016Z,17.25
2023-01-07T08:41:24.583Z,10.75
2023-01-07T08:43:53.997Z,18.25
2023-01-07T08:46:22.541Z,22.00
2023-01-07T08:48:53.340Z,14.00
2023-01-07T08:51:22.864Z,13.50
2023-01-07T08:53:51.225Z,14.25
2023-01-07T08:56:22.360Z,13.67
2023-01-07T08:58:50.190Z,19.33
2023-01-07T09:01:19.395Z,17.33
2023-01-07T09:03:48.211Z,16.00
2023-01-07T09:06:17.513Z,15.00
2023-01-07T09:08:46.360Z,11.67
2023-01-07T09:11:14.273Z,11.00
2023-01-07T09:13:43.464Z,4.00
2023-01-07T09:16:12.342Z,14.33
2023-01-07T09:18:41.512Z,25.00
2023-01-07T09:21:10.850Z,18.67
2023-01-07T09:23:40.625Z,13.67
2023-01-07T09:26:09.685Z,15.00
2023-01-07T09:28:38.510Z,18.67
2023-01-07T09:31:08.329Z,12.33
2023-01-07T09:33:37.382Z,11.33
2023-01-07T09:36:06.030Z,13.67
2023-01-07T09:38:35.235Z,15.67
2023-01-07T09:41:04.627Z,21.33
2023-01-07T09:43:58.684Z,17.33
2023-01-07T09:46:31.642Z,18.00
2023-01-07T09:49:03.781Z,18.33
2023-01-07T09:51:51.503Z,18.00
2023-01-07T09:54:36.098Z,17.33
2023-01-07T09:57:05.942Z,31.00
2023-01-07T09:59:34.502Z,25.67
2023-01-07T10:02:34.378Z,24.67
2023-01-07T10:05:23.288Z,21.00
2023-01-07T10:08:29.256Z,15.67
2023-01-07T10:11:27.804Z,18.00
2023-01-07T10:14:33.060Z,15.67
2023-01-07T10:17:12.882Z,12.00
2023-01-07T10:20:04.131Z,25.33
2023-01-07T10:22:37.279Z,46.00
2023-01-07T10:25:16.049Z,17.33
2023-01-07T10:27:47.917Z,17.33
2023-01-07T10:30:48.641Z,20.67
2023-01-07T10:33:25.566Z,15.67
2023-01-07T10:36:04.413Z,11.33
2023-01-07T10:38:41.061Z,12.00
2023-01-07T10:41:24.709Z,11.00
2023-01-07T10:44:32.188Z,12.67
2023-01-07T10:47:28.621Z,16.00
2023-01-07T10:50:41.630Z,12.67
2023-01-07T10:53:46.890Z,13.33
2023-01-07T10:56:37.903Z,14.67
2023-01-07T10:59:15.179Z,9.67
2023-01-07T11:01:48.809Z,21.67
2023-01-07T11:04:18.567Z,9.67
2023-01-07T11:07:11.386Z,4.00
2023-01-07T11:09:47.459Z,13.00
2023-01-07T11:12:24.942Z,24.67
2023-01-07T11:14:57.290Z,17.00
2023-01-07T11:17:36.576Z,12.67
2023-01-07T11:20:06.873Z,14.67
2023-01-07T11:22:37.860Z,15.00
2023-01-07T11:25:29.306Z,10.00
2023-01-07T11:28:01.024Z,11.00
2023-01-07T11:30:33.741Z,11.67
2023-01-07T11:33:06.478Z,8.00
2023-01-07T11:35:36.508Z,15.00
2023-01-07T11:38:31.609Z,11.33
2023-01-07T11:41:03.842Z,16.67
2023-01-07T11:43:40.362Z,14.67
2023-01-07T11:46:20.302Z,17.33
2023-01-07T11:49:01.574Z,11.00
2023-01-07T11:51:40.847Z,12.00
2023-01-07T11:54:27.977Z,19.33
2023-01-07T11:57:31.635Z,15.00
2023-01-07T12:00:28.962Z,12.00
2023-01-07T12:03:12.178Z,12.33
2023-01-07T12:05:45.303Z,12.67
2023-01-07T12:08:22.752Z,12.00
2023-01-07T12:11:05.560Z,11.00
2023-01-07T12:13:34.641Z,12.67
2023-01-07T12:16:07.587Z,15.33
2023-01-07T12:18:58.024Z,12.67
2023-01-07T12:22:13.074Z,4.00
2023-01-07T12:24:59.416Z,8.67
2023-01-07T12:27:35.841Z,14.67
2023-01-07T12:30:35.668Z,11.33
2023-01-07T12:33:33.053Z,14.33
2023-01-07T12:36:37.804Z,17.33
2023-01-07T12:39:18.665Z,10.33
2023-01-07T12:41:58.385Z,15.67
2023-01-07T12:44:27.746Z,14.33
2023-01-07T12:47:31.557Z,8.00
2023-01-07T12:50:45.115Z,16.00
2023-01-07T12:53:41.312Z,12.00
2023-01-07T12:56:13.343Z,12.67
2023-01-07T12:59:00.127Z,10.33
2023-01-07T13:01:46.848Z,9.67
2023-01-07T13:04:53.436Z,11.00
2023-01-07T13:07:42.956Z,1.00
2023-01-07T13:10:26.701Z,14.00
2023-01-07T13:13:02.240Z,10.33
2023-01-07T13:15:41.060Z,9.00
2023-01-07T13:18:16.582Z,10.67
2023-01-07T13:21:09.264Z,12.67
2023-01-07T13:24:11.704Z,17.00
2023-01-07T13:27:22.005Z,13.00
2023-01-07T13:29:59.505Z,11.33
2023-01-07T13:33:05.077Z,19.00
2023-01-07T13:36:18.768Z,8.67
2023-01-07T13:39:15.769Z,19.33
2023-01-07T13:41:58.507Z,13.67
2023-01-07T13:44:54.493Z,14.67
2023-01-07T13:47:36.883Z,19.33
2023-01-07T13:50:07.783Z,18.67
2023-01-07T13:52:38.317Z,22.67
2023-01-07T13:55:32.736Z,19.33
2023-01-07T13:58:05.744Z,14.33
2023-01-07T14:01:06.751Z,19.67
2023-01-07T14:04:04.119Z,9.00
2023-01-07T14:06:45.013Z,11.00
2023-01-07T14:09:25.992Z,14.00
2023-01-07T14:12:20.380Z,15.67
2023-01-07T14:15:33.876Z,15.67
2023-01-07T14:18:33.641Z,14.67
2023-01-07T14:21:22.578Z,17.67
2023-01-07T14:24:16.786Z,16.00
2023-01-07T14:27:03.436Z,5.00
2023-01-07T14:29:48.136Z,2.00
2023-01-07T14:32:37.045Z,6.33
2023-01-07T14:35:33.268Z,12.00
2023-01-07T14:38:23.029Z,17.67
2023-01-07T14:41:16.331Z,15.67
2023-01-07T14:43:49.989Z,9.33
2023-01-07T14:46:26.456Z,11.67
2023-01-07T14:49:50.110Z,8.00
2023-01-07T14:52:38.986Z,9.33
2023-01-07T14:55:25.765Z,8.33
2023-01-07T14:58:15.397Z,8.00
2023-01-07T15:01:22.303Z,9.33
2023-01-07T15:04:08.591Z,9.67
2023-01-07T15:06:42.687Z,18.50
2023-01-07T15:09:53.020Z,8.00
2023-01-07T15:12:48.769Z,10.33
2023-01-07T15:15:49.635Z,6.00
2023-01-07T15:18:18.798Z,12.25
2023-01-07T15:21:00.327Z,8.75
2023-01-07T15:23:54.594Z,5.00
2023-01-07T15:27:00.968Z,13.75
2023-01-07T15:29:42.541Z,18.25
2023-01-07T15:32:35.636Z,17.00
2023-01-07T15:35:27.513Z,18.00
2023-01-07T15:37:57.460Z,18.00
2023-01-07T15:40:28.071Z,21.25
2023-01-07T15:43:01.257Z,21.75
2023-01-07T15:45:29.445Z,22.25
2023-01-07T15:48:12.633Z,22.50
2023-01-07T15:50:45.986Z,27.25
2023-01-07T15:53:14.242Z,25.25
2023-01-07T15:56:03.759Z,19.50
2023-01-07T15:58:49.151Z,23.00
2023-01-07T16:01:21.946Z,22.00
2023-01-07T16:03:54.644Z,22.50
2023-01-07T16:06:39.590Z,26.25
2023-01-07T16:09:27.573Z,22.25
2023-01-07T16:11:56.740Z,22.50
2023-01-07T16:14:27.032Z,18.50
2023-01-07T16:17:14.581Z,29.50
2023-01-07T16:19:43.878Z,28.00
2023-01-07T16:22:35.523Z,31.50
2023-01-07T16:25:16.853Z,31.75
2023-01-07T16:27:46.870Z,36.00
2023-01-07T16:30:16.658Z,34.50
2023-01-07T16:32:45.891Z,34.75
2023-01-07T16:35:23.016Z,35.50
2023-01-07T16:37:56.688Z,32.25
2023-01-07T16:40:35.172Z,37.25
2023-01-07T16:43:05.077Z,40.00
2023-01-07T16:45:37.302Z,33.50
2023-01-07T16:48:21.663Z,34.50
2023-01-07T16:50:50.912Z,35.75
2023-01-07T16:53:27.538Z,38.00
2023-01-07T16:56:08.104Z,38.00
2023-01-07T16:58:44.086Z,39.50
2023-01-07T17:01:21.441Z,36.75
2023-01-07T17:04:01.355Z,37.00
2023-01-07T17:06:42.206Z,29.50
2023-01-07T17:09:22.185Z,33.75
2023-01-07T17:11:52.851Z,29.75
2023-01-07T17:14:33.604Z,34.75
2023-01-07T17:17:15.121Z,30.50
2023-01-07T17:19:52.512Z,33.00
2023-01-07T17:22:42.149Z,27.75
2023-01-07T17:25:34.876Z,32.50
2023-01-07T17:28:08.270Z,31.75
2023-01-07T17:30:37.839Z,31.75
2023-01-07T17:33:16.846Z,28.00
2023-01-07T17:35:47.365Z,29.00
2023-01-07T17:38:16.623Z,30.50
2023-01-07T17:40:47.075Z,29.25
2023-01-07T17:43:38.018Z,33.50
2023-01-07T17:46:09.531Z,32.00
2023-01-07T17:48:38.431Z,33.00
2023-01-07T17:51:07.416Z,33.50
2023-01-07T17:53:48.511Z,30.50
2023-01-07T17:56:22.665Z,35.50
2023-01-07T17:58:51.409Z,35.50
2023-01-07T18:01:23.334Z,38.50
2023-01-07T18:03:54.689Z,21.75
2023-01-07T18:06:27.781Z,34.00
2023-01-07T18:08:57.112Z,37.25
2023-01-07T18:11:47.730Z,39.00
2023-01-07T18:14:16.734Z,37.75
2023-01-07T18:16:45.277Z,38.25
2023-01-07T18:19:16.037Z,38.00
2023-01-07T18:21:44.158Z,40.50
2023-01-07T18:24:19.880Z,33.50
2023-01-07T18:26:48.740Z,39.25
2023-01-07T18:29:17.625Z,36.00
2023-01-07T18:31:46.357Z,32.75
2023-01-07T18:34:16.086Z,35.25
2023-01-07T18:36:44.197Z,34.00
2023-01-07T18:39:19.574Z,36.25
2023-01-07T18:41:50.285Z,36.00
2023-01-07T18:44:19.427Z,32.00
2023-01-07T18:46:48.486Z,35.50
2023-01-07T18:49:17.246Z,35.75
2023-01-07T18:51:47.363Z,32.25
2023-01-07T18:54:15.782Z,35.00
2023-01-07T18:56:46.002Z,35.25
2023-01-07T18:59:14.954Z,37.75
2023-01-07T19:01:44.210Z,35.00
2023-01-07T19:04:12.418Z,35.00
2023-01-07T19:06:42.207Z,41.00
2023-01-07T19:09:10.144Z,31.00
2023-01-07T19:11:39.161Z,33.50
2023-01-07T19:14:10.118Z,34.50
2023-01-07T19:16:39.598Z,33.25
2023-01-07T19:19:09.332Z,38.00
2023-01-07T19:21:40.438Z,37.50
2023-01-07T19:24:09.627Z,35.75
2023-01-07T19:26:38.133Z,35.25
2023-01-07T19:29:07.215Z,33.50
2023-01-07T19:31:36.418Z,39.25
2023-01-07T19:34:05.855Z,35.50
2023-01-07T19:36:34.318Z,36.50
2023-01-07T19:39:03.679Z,36.25
2023-01-07T19:41:34.276Z,38.25
2023-01-07T19:44:04.751Z,38.75
2023-01-07T19:46:35.054Z,32.25
2023-01-07T19:49:03.622Z,39.75
2023-01-07T19:51:34.552Z,38.25
2023-01-07T19:54:04.667Z,42.25
2023-01-07T19:56:37.145Z,38.00
2023-01-07T19:59:05.142Z,36.00
2023-01-07T20:01:34.695Z,36.50
2023-01-07T20:04:04.794Z,36.25
2023-01-07T20:06:43.209Z,36.25
2023-01-07T20:09:14.217Z,36.75
2023-01-07T20:11:43.336Z,36.00
2023-01-07T20:14:13.643Z,39.50
2023-01-07T20:16:45.894Z,39.25
2023-01-07T20:19:14.754Z,34.75
2023-01-07T20:21:43.180Z,37.50
2023-01-07T20:24:13.441Z,38.25
2023-01-07T20:26:42.233Z,37.75
2023-01-07T20:29:11.266Z,36.25
2023-01-07T20:31:40.552Z,36.00
2023-01-07T20:34:09.081Z,36.00
2023-01-07T20:36:39.890Z,35.75
2023-01-07T20:39:08.170Z,33.25
2023-01-07T20:41:38.888Z,35.75
2023-01-07T20:44:09.102Z,36.00
2023-01-07T20:46:39.238Z,38.25
2023-01-07T20:49:08.225Z,34.00
2023-01-07T20:51:37.202Z,35.75
2023-01-07T20:54:06.449Z,36.75
2023-01-07T20:56:35.298Z,37.50
2023-01-07T20:59:04.196Z,39.25
2023-01-07T21:01:33.357Z,39.00
2023-01-07T21:04:02.484Z,35.75
2023-01-07T21:06:31.487Z,36.50
2023-01-07T21:09:00.508Z,37.00
2023-01-07T21:11:29.145Z,41.75
2023-01-07T21:13:57.083Z,36.50
2023-01-07T21:16:27.707Z,35.75
2023-01-07T21:18:56.470Z,41.00
2023-01-07T21:21:25.881Z,35.50
2023-01-07T21:23:54.704Z,39.00
2023-01-07T21:26:25.541Z,37.00
2023-01-07T21:28:59.227Z,38.00
2023-01-07T21:31:28.241Z,37.75
2023-01-07T21:34:03.199Z,40.25
2023-01-07T21:36:31.205Z,38.50
2023-01-07T21:38:59.442Z,34.00
2023-01-07T21:41:28.380Z,37.50
2023-01-07T21:43:57.741Z,37.00
2023-01-07T21:46:26.767Z,37.50
2023-01-07T21:48:54.936Z,40.25
2023-01-07T21:51:29.506Z,35.00
2023-01-07T21:53:58.907Z,31.50
2023-01-07T21:56:32.334Z,39.00
2023-01-07T21:59:00.360Z,36.00
2023-01-07T22:01:30.056Z,36.50
2023-01-07T22:03:59.513Z,33.00
2023-01-07T22:06:33.752Z,38.25
2023-01-07T22:09:05.315Z,38.25
2023-01-07T22:11:36.048Z,37.00
2023-01-07T22:14:04.368Z,38.25
2023-01-07T22:16:34.459Z,38.00
2023-01-07T22:19:04.082Z,39.50
2023-01-07T22:21:33.113Z,35.75
2023-01-07T22:24:02.068Z,42.00
2023-01-07T22:26:31.928Z,40.00
2023-01-07T22:29:03.262Z,32.75
2023-01-07T22:31:36.812Z,38.00
2023-01-07T22:34:06.567Z,37.75
2023-01-07T22:36:35.010Z,27.50
2023-01-07T22:39:21.541Z,37.00
2023-01-07T22:41:56.322Z,35.75
2023-01-07T22:44:33.081Z,36.25
2023-01-07T22:47:02.494Z,37.50
2023-01-07T22:49:32.395Z,36.50
2023-01-07T22:52:01.595Z,27.00
2023-01-07T22:54:31.611Z,36.75
2023-01-07T22:57:00.893Z,39.75
2023-01-07T22:59:29.011Z,36.25
2023-01-07T23:01:57.965Z,36.25
2023-01-07T23:04:26.050Z,35.50
2023-01-07T23:06:54.705Z,13.75
2023-01-07T23:09:23.046Z,33.25
2023-01-07T23:11:52.495Z,34.00
2023-01-07T23:14:22.947Z,36.00
2023-01-07T23:16:55.514Z,36.50
2023-01-07T23:19:24.154Z,31.75
2023-01-07T23:21:56.245Z,27.00
2023-01-07T23:24:25.130Z,31.00
2023-01-07T23:26:54.023Z,34.75
2023-01-07T23:29:22.828Z,33.25
2023-01-07T23:31:51.833Z,33.25
2023-01-07T23:34:20.719Z,37.25
2023-01-07T23:36:49.961Z,38.00
2023-01-07T23:39:18.145Z,36.00
2023-01-07T23:41:47.830Z,38.75
2023-01-07T23:44:17.596Z,36.50
2023-01-07T23:46:46.321Z,32.50
2023-01-07T23:49:15.118Z,21.25
2023-01-07T23:51:44.251Z,35.75
2023-01-07T23:54:13.254Z,27.50
2023-01-07T23:56:41.024Z,34.75
2023-01-07T23:59:11.319Z,29.75
